Comanche, Texas
Current Conditions -  °F | °C
As of 8:55 PM on Wednesday 26 Nov 2014 (Local Time) from KMKN Reporting Station
Clear Clear  
Wind Chill: 46°   Ceiling: Unl
Heat Index: 48°   Visibility: 10mi
Dew Point: 38°   Wind: 6mph
Humidity: 66%   Direction: 330°NNW
Pressure: 30.35"   Gusts: NA
Location:  31.9°N, 98.6°W
Report Text: KMKN 270255Z AUTO 33005KT 10SM CLR 09/03 A3035 RMK AO2 T00910031
Loading
Personal Weather Stations






























Interactive Weather Map New forecast layout! Learn more

10-Day Weather Forecast

Advertisements
Track Severe Weather on mobile